Federal Rideau — VRWG7 — position and weather

sailwx.info

Track history (hours):
 
Tides and Currents Weather Stations Pressure Air Temp Water Temp Dewpoint Dewpoint Depression Visibility Wind Speed Wind Dir Waves Ship Positions

Federal Rideau

Last reported at 2015-Dec-08 02:21 UTC. Time now 2016-Feb-13 06:52 UTC.
Position N 35°46' W 025°01'.
Warning: this ship's position is months out of date.

Length 200 m; draft 10.3 m.

Type: Cargo ship. MMSI: 477734000.

Date/timePositionNaut miles runAvg speedWind from/ knotsBaromVisibWave heightAir tempDewpointWater temp
2015-Dec-08 02:21N 35°46' W 025°01'1011.4
2015-Dec-08 01:31N 35°48' W 024°49'1111.0
2015-Dec-08 00:34N 35°50' W 024°37'1111.2
2015-Dec-07 23:33N 35°53' W 024°23'1111.0
2015-Dec-07 22:34N 35°55' W 024°10'1110.7
2015-Dec-07 21:31N 35°58' W 023°57'  
2015-Dec-02 05:28N 49°48' W 000°41'1213.5
2015-Dec-02 04:33N 49°40' W 000°27'1312.8
2015-Dec-02 03:33N 49°32' W 000°12'1110.5
2015-Dec-02 02:33N 49°27' E 000°03'1110.9
2015-Dec-02 01:33N 49°26' E 000°19'8 8.4
2015-Dec-02 00:33N 49°29' E 000°31'6 5.6
2015-Dec-01 23:33N 49°27' E 000°40'5 4.4
2015-Dec-01 22:23N 49°29' E 000°47'6 7.0
2015-Dec-01 21:33N 49°24' E 000°51'  
2015-Nov-29 14:34N 49°27' E 000°49'6 6.3
2015-Nov-29 13:33N 49°27' E 000°39'1010.3
2015-Nov-29 12:34N 49°27' E 000°24'1313.2
2015-Nov-29 11:33N 49°27' E 000°03'9 8.6
2015-Nov-29 10:33N 49°30' W 000°09'10 9.7
2015-Nov-29 09:33N 49°38' W 000°17'1110.7
2015-Nov-29 08:34N 49°48' W 000°10'3912.4
2015-Nov-29 05:23N 50°27' W 000°01'1111.1
2015-Nov-29 04:22N 50°31' E 000°15'911.1
2015-Nov-29 03:33N 50°35' E 000°28'10 9.9
2015-Nov-29 02:34N 50°39' E 000°42'10 9.7
2015-Nov-29 01:34N 50°45' E 000°54'10 9.0
2015-Nov-29 00:25N 50°52' E 001°06'8 8.9
2015-Nov-28 23:33N 50°57' E 001°15'9 9.2
2015-Nov-28 22:34N 51°04' E 001°25'1212.3
2015-Nov-28 21:34N 51°11' E 001°41'1312.8
2015-Nov-28 20:34N 51°22' E 001°51'1212.0
2015-Nov-28 19:34N 51°32' E 002°03'1111.1
2015-Nov-28 18:34N 51°40' E 002°15'7510.6
2015-Nov-28 11:28N 52°31' E 003°45'1111.8
2015-Nov-28 10:34N 52°31' E 004°02'1110.8
2015-Nov-28 09:33N 52°30' E 004°20'4 3.6
2015-Nov-28 08:34N 52°29' E 004°26'7 6.7
2015-Nov-28 07:33N 52°28' E 004°37'3 3.3
2015-Nov-28 06:34N 52°27' E 004°42'5 5.4
2015-Nov-28 05:33N 52°25' E 004°50'2 1.5
2015-Nov-28 04:32N 52°24' E 004°52'0 0.0
2015-Nov-28 03:32N 52°24' E 004°52'0 0.0
2015-Nov-28 02:32N 52°24' E 004°52'  
Track history (hours):
 
Tides and Currents Weather Stations Pressure Air Temp Water Temp Dewpoint Dewpoint Depression Visibility Wind Speed Wind Dir Waves Ship Positions

Federal Rideau

Last reported at 2015-Dec-08 02:21 UTC. Time now 2016-Feb-13 06:52 UTC.
Position N 35°46' W 025°01'.
Warning: this ship's position is months out of date.

Length 200 m; draft 10.3 m.

Type: Cargo ship. MMSI: 477734000.

Date/timePositionNaut miles runAvg speedWind from/ knotsBaromVisibWave heightAir tempDewpointWater temp
2015-Dec-08 02:21N 35°46' W 025°01'1011.4
2015-Dec-08 01:31N 35°48' W 024°49'1111.0
2015-Dec-08 00:34N 35°50' W 024°37'1111.2
2015-Dec-07 23:33N 35°53' W 024°23'1111.0
2015-Dec-07 22:34N 35°55' W 024°10'1110.7
2015-Dec-07 21:31N 35°58' W 023°57'  
2015-Dec-02 05:28N 49°48' W 000°41'1213.5
2015-Dec-02 04:33N 49°40' W 000°27'1312.8
2015-Dec-02 03:33N 49°32' W 000°12'1110.5
2015-Dec-02 02:33N 49°27' E 000°03'1110.9
2015-Dec-02 01:33N 49°26' E 000°19'8 8.4
2015-Dec-02 00:33N 49°29' E 000°31'6 5.6
2015-Dec-01 23:33N 49°27' E 000°40'5 4.4
2015-Dec-01 22:23N 49°29' E 000°47'6 7.0
2015-Dec-01 21:33N 49°24' E 000°51'  
2015-Nov-29 14:34N 49°27' E 000°49'6 6.3
2015-Nov-29 13:33N 49°27' E 000°39'1010.3
2015-Nov-29 12:34N 49°27' E 000°24'1313.2
2015-Nov-29 11:33N 49°27' E 000°03'9 8.6
2015-Nov-29 10:33N 49°30' W 000°09'10 9.7
2015-Nov-29 09:33N 49°38' W 000°17'1110.7
2015-Nov-29 08:34N 49°48' W 000°10'3912.4
2015-Nov-29 05:23N 50°27' W 000°01'1111.1
2015-Nov-29 04:22N 50°31' E 000°15'911.1
2015-Nov-29 03:33N 50°35' E 000°28'10 9.9
2015-Nov-29 02:34N 50°39' E 000°42'10 9.7
2015-Nov-29 01:34N 50°45' E 000°54'10 9.0
2015-Nov-29 00:25N 50°52' E 001°06'8 8.9
2015-Nov-28 23:33N 50°57' E 001°15'9 9.2
2015-Nov-28 22:34N 51°04' E 001°25'1212.3
2015-Nov-28 21:34N 51°11' E 001°41'1312.8
2015-Nov-28 20:34N 51°22' E 001°51'1212.0
2015-Nov-28 19:34N 51°32' E 002°03'1111.1
2015-Nov-28 18:34N 51°40' E 002°15'7510.6
2015-Nov-28 11:28N 52°31' E 003°45'1111.8
2015-Nov-28 10:34N 52°31' E 004°02'1110.8
2015-Nov-28 09:33N 52°30' E 004°20'4 3.6
2015-Nov-28 08:34N 52°29' E 004°26'7 6.7
2015-Nov-28 07:33N 52°28' E 004°37'3 3.3
2015-Nov-28 06:34N 52°27' E 004°42'5 5.4
2015-Nov-28 05:33N 52°25' E 004°50'2 1.5
2015-Nov-28 04:32N 52°24' E 004°52'0 0.0
2015-Nov-28 03:32N 52°24' E 004°52'0 0.0
2015-Nov-28 02:32N 52°24' E 004°52'  

Dump ship's entire track history